LiveATC.Net - Listen to live air traffic control over the Internet! Contact LiveATC.net for advertising information


ICAO: LRTR  IATA: TSR   Airport: Traian Vuia International Airport
City: Timisoara
Country: Romania   Continent: Europe
LRTR METAR Weather: LRTR 312000Z 00000KT 4000 BR NSC 04/04 Q1027
LRTR Flight Activity (FlightAware)
LRTR Tower
Feed Status: DOWN
Last heard on: 2014-10-31 11:06:02 (0 days 9 hours 32 minutes ago)
LRTR Tower Audio Archives
FacilityFrequency
ARAD Approach127.250
Timisoara Tower120.100


NOTICE

Unauthorized use prohibited. See LiveATC.net Terms of Service


Find LiveATC Audio Streams


Airport/ARTCC Code

Frequency
(e.g., 124.400, 128.75)
Site-wide search

Browse LiveATC Feeds
LiveATC Coverage Map
Top 50 LiveATC Feeds
Bad Weather Areas

LiveATC FAQ
Offer a LiveATC Feed
Contact LiveATC.net
Press Inquiries

LiveATC on iPhone
LiveATC on Android

LiveATC Mobile
(Mobile browser)

ATC Audio Archives
Interesting Recordings

LiveATC Forums


Home Page
About LiveATC.net
Make a Donation
LiveATC Bookstore

Terms of Use
Privacy Policy

ATC/Radar Sites
U.S. ARTCC Freqs
Canadian Air Freqs

AIRMETs/SIGMETs

FAA Airport Status
Nat'l Airspace Status
Arrival Demand Charts


Server Software By:
Icecast.org
Liquidsoap

Please make a donation to help us keep growing!